MSC Vidhi — D5GE2 — position and weather

sailwx.info

Track history (hours):
 
Tides and Currents Weather Stations Pressure Air Temp Water Temp Dewpoint Dewpoint Depression Visibility Wind Speed Wind Dir Waves Ship Positions

MSC Vidhi

Last reported at 2017-Sep-09 08:06 UTC. Time now 2017-Sep-24 16:01 UTC.
Position S 24°16' W 045°24'.
Warning: this ship's position is 15 days out of date.

Length 277 m; draft 12.7 m.

Type: Ship (hazmat cat A). MMSI: 636016433.

Date/timePositionNaut miles runAvg speedWind from/ knotsBaromVisibWave heightAir tempDewpointWater temp
2017-Sep-09 08:06S 24°16' W 045°24'219.5
2017-Sep-09 07:59S 24°16' W 045°26'1019.5
2017-Sep-09 07:27S 24°15' W 045°38'1119.5
2017-Sep-09 06:53S 24°15' W 045°50'719.7
2017-Sep-09 06:30S 24°15' W 045°58'1019.8
2017-Sep-09 06:00S 24°15' W 046°09'1019.9
2017-Sep-09 05:30S 24°15' W 046°20'917.9
2017-Sep-09 05:01S 24°06' W 046°23'713.9
2017-Sep-09 04:30S 23°60' W 046°20'3 5.3
2017-Sep-09 04:00S 23°58' W 046°18'4 4.6
2017-Sep-09 03:14S 23°55' W 046°21'0 0.0
2017-Sep-08 09:00S 23°55' W 046°21'3 3.3
2017-Sep-08 08:15S 23°57' W 046°19'2 8.1
2017-Sep-08 07:59S 23°59' W 046°17'4 7.8
2017-Sep-08 07:30S 24°01' W 046°20'5 9.4
2017-Sep-08 07:00S 24°05' W 046°22'510.3
2017-Sep-08 06:31S 24°10' W 046°24'4 8.4
2017-Sep-08 06:00S 24°14' W 046°24'0 0.9
2017-Sep-08 05:30S 24°14' W 046°24'0 0.9
2017-Sep-08 05:00S 24°14' W 046°23'0 0.9
2017-Sep-08 04:30S 24°15' W 046°23'4 7.2
2017-Sep-08 04:01S 24°17' W 046°26'1020.3
2017-Sep-08 03:31S 24°26' W 046°31'1020.5
2017-Sep-08 03:01S 24°36' W 046°35'1020.3
2017-Sep-08 02:30S 24°44' W 046°42'1720.4
2017-Sep-08 01:39S 24°57' W 046°54'320.4
2017-Sep-08 01:30S 24°60' W 046°56'1220.4
2017-Sep-08 00:55S 25°09' W 047°05'1120.7
2017-Sep-08 00:24S 25°17' W 047°11'820.8
2017-Sep-08 00:00S 25°25' W 047°16'1420.0
2017-Sep-07 23:20S 25°35' W 047°26'34 0.7
2017-Sep-06 00:21S 25°04' W 047°12'919.7
2017-Sep-05 23:54S 24°58' W 047°04'820.1
2017-Sep-05 23:30S 24°53' W 046°58'1020.9
2017-Sep-05 23:00S 24°46' W 046°49'1021.0
2017-Sep-05 22:30S 24°39' W 046°40'1020.3
2017-Sep-05 22:00S 24°31' W 046°33'1020.6
2017-Sep-05 21:30S 24°22' W 046°29'1020.8
2017-Sep-05 21:00S 24°12' W 046°26'1019.8
2017-Sep-05 20:30S 24°03' W 046°21'5 9.3
2017-Sep-05 20:01S 23°60' W 046°18'5 7.3
2017-Sep-05 19:20S 23°55' W 046°20'0 1.1
2017-Sep-05 18:59S 23°55' W 046°21'0 0.0
2017-Sep-05 18:29S 23°55' W 046°21'0 0.0
2017-Sep-05 17:59S 23°55' W 046°21'0 0.0
2017-Sep-05 17:17S 23°55' W 046°21'0 0.0
2017-Sep-05 16:53S 23°55' W 046°21'0 0.0
2017-Sep-05 14:35S 23°55' W 046°21'0 0.0
2017-Sep-05 14:23S 23°55' W 046°21'0 0.0
2017-Sep-05 08:29S 23°55' W 046°21'0 0.0
2017-Sep-05 07:56S 23°55' W 046°21'0 0.0
2017-Sep-05 07:29S 23°55' W 046°21'0 0.0
2017-Sep-05 06:59S 23°55' W 046°21'0 0.0
2017-Sep-05 06:23S 23°55' W 046°21'0 0.0
2017-Sep-05 05:59S 23°55' W 046°21'0 0.0
2017-Sep-05 05:29S 23°55' W 046°21'0 0.0
2017-Sep-05 04:59S 23°55' W 046°21'0 0.0
2017-Sep-05 04:29S 23°55' W 046°21'0 0.0
2017-Sep-05 02:47S 23°55' W 046°21'0 0.0
2017-Sep-05 02:29S 23°55' W 046°21'0 0.0
2017-Sep-05 00:59S 23°55' W 046°21'0 0.0
2017-Sep-05 00:17S 23°55' W 046°21'0 0.0
2017-Sep-04 23:59S 23°55' W 046°21'0 0.0
2017-Sep-04 23:11S 23°55' W 046°21'0 0.0
2017-Sep-04 22:47S 23°55' W 046°21'0 0.0
2017-Sep-04 21:03S 23°55' W 046°21'0 0.3
2017-Sep-04 20:53S 23°55' W 046°21'3 4.3
2017-Sep-04 20:05S 23°58' W 046°18'2 7.0
2017-Sep-04 19:49S 23°60' W 046°18'3 8.5
2017-Sep-04 19:30S 24°01' W 046°20'5 9.8
2017-Sep-04 19:01S 24°05' W 046°22'613.0
2017-Sep-04 18:31S 24°11' W 046°19'2 2.8
2017-Sep-04 17:56S 24°11' W 046°17'0 0.0
2017-Sep-04 17:29S 24°11' W 046°17'0 0.0
2017-Sep-04 16:56S 24°11' W 046°17'0 0.0
2017-Sep-04 16:29S 24°11' W 046°17'0 0.1
2017-Sep-04 15:56S 24°11' W 046°17'0 0.1
2017-Sep-04 15:20S 24°11' W 046°17'0 0.0
2017-Sep-04 14:41S 24°11' W 046°17'0 0.0
2017-Sep-04 14:26S 24°11' W 046°17'0 0.0
2017-Sep-04 13:59S 24°11' W 046°17'0 0.0
2017-Sep-04 13:26S 24°11' W 046°17'0 0.0
2017-Sep-04 12:56S 24°11' W 046°17'0 0.0
2017-Sep-04 12:26S 24°11' W 046°17'0 0.0
2017-Sep-04 11:59S 24°11' W 046°17'0 0.0
2017-Sep-04 11:26S 24°11' W 046°17'0 0.0
2017-Sep-04 10:50S 24°11' W 046°17'0 0.0
2017-Sep-04 10:23S 24°11' W 046°17'0 0.0
2017-Sep-04 09:59S 24°11' W 046°17'0 0.0
2017-Sep-04 09:08S 24°11' W 046°17'0 0.0
2017-Sep-04 08:56S 24°11' W 046°17'0 0.0
2017-Sep-04 08:26S 24°11' W 046°17'0 0.0
2017-Sep-04 07:44S 24°11' W 046°17'0 0.0
2017-Sep-04 07:26S 24°11' W 046°17'0 0.0
2017-Sep-04 06:50S 24°11' W 046°17'0 0.0
2017-Sep-04 06:26S 24°11' W 046°17'0 0.0
2017-Sep-04 05:59S 24°11' W 046°17'0 0.0
2017-Sep-04 05:26S 24°11' W 046°17'0 0.0
2017-Sep-04 04:56S 24°11' W 046°17'0 0.0
2017-Sep-04 04:26S 24°11' W 046°17'0 0.0
2017-Sep-04 03:56S 24°11' W 046°17'0 0.0
2017-Sep-04 03:20S 24°11' W 046°17'0 0.0
2017-Sep-04 02:56S 24°11' W 046°17'0 0.0
2017-Sep-04 02:26S 24°11' W 046°17'0 0.0
2017-Sep-04 01:56S 24°11' W 046°17'0 0.0
2017-Sep-04 01:26S 24°11' W 046°17'0 0.0
2017-Sep-04 00:56S 24°11' W 046°17'0 0.0
2017-Sep-04 00:26S 24°11' W 046°17'0 0.0
2017-Sep-03 23:59S 24°11' W 046°17'0 0.0
2017-Sep-03 23:20S 24°11' W 046°17'0 0.0
2017-Sep-03 22:59S 24°11' W 046°17'0 0.0
2017-Sep-03 22:20S 24°11' W 046°17'0 0.0
2017-Sep-03 21:56S 24°11' W 046°17'0 0.0
2017-Sep-03 21:29S 24°11' W 046°17'0 0.0
2017-Sep-03 20:56S 24°11' W 046°17'0 0.0
2017-Sep-03 20:20S 24°11' W 046°17'0 0.0
2017-Sep-03 19:56S 24°11' W 046°17'0 0.0
2017-Sep-03 19:26S 24°11' W 046°17'0 0.0
2017-Sep-03 18:53S 24°11' W 046°17'0 0.0
2017-Sep-03 18:26S 24°11' W 046°17'0 0.0
2017-Sep-03 17:56S 24°11' W 046°17'0 0.0
2017-Sep-03 17:26S 24°11' W 046°17'0 0.0
2017-Sep-03 16:56S 24°11' W 046°17'0 0.0
2017-Sep-03 16:26S 24°11' W 046°17'0 0.0
2017-Sep-03 15:56S 24°11' W 046°17'0 0.0
2017-Sep-03 15:26S 24°11' W 046°17'0 0.0
2017-Sep-03 14:59S 24°11' W 046°17'0 0.0
2017-Sep-03 13:56S 24°11' W 046°17'0 0.0
2017-Sep-03 13:26S 24°11' W 046°17'0 0.0
2017-Sep-03 12:56S 24°11' W 046°17'0 0.0
2017-Sep-03 12:29S 24°11' W 046°17'0 0.0
2017-Sep-03 11:50S 24°11' W 046°17'0 0.0
2017-Sep-03 11:23S 24°11' W 046°17'0 0.0
2017-Sep-03 10:50S 24°11' W 046°17'0 0.0
2017-Sep-03 10:26S 24°11' W 046°17'0 0.0
2017-Sep-03 09:56S 24°11' W 046°17'0 0.0
2017-Sep-03 09:23S 24°11' W 046°17'0 0.0
2017-Sep-03 08:56S 24°11' W 046°17'0 0.0
2017-Sep-03 08:26S 24°11' W 046°17'0 0.0
2017-Sep-03 07:59S 24°11' W 046°17'0 0.0
2017-Sep-03 07:26S 24°11' W 046°17'0 0.0
2017-Sep-03 06:50S 24°11' W 046°17'0 0.0
2017-Sep-03 06:29S 24°11' W 046°17'0 0.0
2017-Sep-03 05:56S 24°11' W 046°17'0 0.0
2017-Sep-03 05:26S 24°11' W 046°17'0 0.0
2017-Sep-03 04:50S 24°11' W 046°17'0 0.0
2017-Sep-03 04:26S 24°11' W 046°17'0 0.0
2017-Sep-03 03:38S 24°11' W 046°17'0 0.0
2017-Sep-03 03:26S 24°11' W 046°17'0 0.0
2017-Sep-03 02:44S 24°11' W 046°17'0 0.0
2017-Sep-03 02:08S 24°11' W 046°17'0 0.0
2017-Sep-03 01:56S 24°11' W 046°17'0 0.0
2017-Sep-03 01:26S 24°11' W 046°17'0 0.0
2017-Sep-03 00:56S 24°11' W 046°17'0 0.0
2017-Sep-03 00:26S 24°11' W 046°17'0 0.0
2017-Sep-02 23:56S 24°11' W 046°17'0 0.0
2017-Sep-02 23:20S 24°11' W 046°17'0 0.0
2017-Sep-02 22:59S 24°11' W 046°17'0 0.0
2017-Sep-02 22:14S 24°11' W 046°17'0 0.0
2017-Sep-02 21:50S 24°11' W 046°17'0 0.0
2017-Sep-02 21:29S 24°11' W 046°17'0 0.0
2017-Sep-02 20:50S 24°11' W 046°17'0 0.0
2017-Sep-02 20:26S 24°11' W 046°17'0 0.0
2017-Sep-02 19:38S 24°11' W 046°17'0 0.1
2017-Sep-02 19:08S 24°11' W 046°17'0 0.1
2017-Sep-02 18:53S 24°11' W 046°17'0 0.0
2017-Sep-02 18:26S 24°11' W 046°17'0 0.0
2017-Sep-02 17:59S 24°11' W 046°17'0 0.0
2017-Sep-02 17:23S 24°11' W 046°17'0 0.0
2017-Sep-02 16:56S 24°11' W 046°17'0 0.0
2017-Sep-02 16:26S 24°11' W 046°17'0 0.0
2017-Sep-02 15:44S 24°11' W 046°17'0 0.0
2017-Sep-02 15:23S 24°11' W 046°17'0 0.0
2017-Sep-02 14:59S 24°11' W 046°17'0 0.0
2017-Sep-02 14:26S 24°11' W 046°17'0 0.0
2017-Sep-02 13:59S 24°11' W 046°17'0 0.0
2017-Sep-02 13:29S 24°11' W 046°17'0 0.0
2017-Sep-02 12:50S 24°11' W 046°17'0 0.0
2017-Sep-02 12:29S 24°11' W 046°17'0 0.0
2017-Sep-02 11:50S 24°11' W 046°17'0 0.0
2017-Sep-02 11:20S 24°11' W 046°17'0 0.0
2017-Sep-02 10:50S 24°11' W 046°17'0 0.0
2017-Sep-02 10:26S 24°11' W 046°17'0 0.0
2017-Sep-02 09:56S 24°11' W 046°17'0 0.0
2017-Sep-02 09:20S 24°11' W 046°17'0 0.0
2017-Sep-02 08:44S 24°11' W 046°17'0 0.1
2017-Sep-02 08:29S 24°11' W 046°17'0 0.0
2017-Sep-02 07:08S 24°11' W 046°17'0 0.0
2017-Sep-02 07:00S 24°11' W 046°17'0 0.0
2017-Sep-02 06:30S 24°11' W 046°17'0 0.0
2017-Sep-02 06:01S 24°11' W 046°17'0 0.0
2017-Sep-02 05:29S 24°11' W 046°17'0 0.0
2017-Sep-02 05:01S 24°11' W 046°17'0 0.0
2017-Sep-02 04:31S 24°11' W 046°17'0 0.0
2017-Sep-02 04:00S 24°11' W 046°17'0 0.0
2017-Sep-02 03:31S 24°11' W 046°17'0 0.0
2017-Sep-02 03:00S 24°11' W 046°17'0 0.0
2017-Sep-02 02:31S 24°11' W 046°17'0 0.1
2017-Sep-02 02:01S 24°11' W 046°17'0 0.1
2017-Sep-02 01:31S 24°11' W 046°17'2 3.2
2017-Sep-02 01:01S 24°12' W 046°17'510.0
2017-Sep-02 00:30S 24°16' W 046°13'916.4
2017-Sep-01 23:56S 24°15' W 046°02'  
Track history (hours):
 
Tides and Currents Weather Stations Pressure Air Temp Water Temp Dewpoint Dewpoint Depression Visibility Wind Speed Wind Dir Waves Ship Positions

MSC Vidhi

Last reported at 2017-Sep-09 08:06 UTC. Time now 2017-Sep-24 16:01 UTC.
Position S 24°16' W 045°24'.
Warning: this ship's position is 15 days out of date.

Length 277 m; draft 12.7 m.

Type: Ship (hazmat cat A). MMSI: 636016433.

Date/timePositionNaut miles runAvg speedWind from/ knotsBaromVisibWave heightAir tempDewpointWater temp
2017-Sep-09 08:06S 24°16' W 045°24'219.5
2017-Sep-09 07:59S 24°16' W 045°26'1019.5
2017-Sep-09 07:27S 24°15' W 045°38'1119.5
2017-Sep-09 06:53S 24°15' W 045°50'719.7
2017-Sep-09 06:30S 24°15' W 045°58'1019.8
2017-Sep-09 06:00S 24°15' W 046°09'1019.9
2017-Sep-09 05:30S 24°15' W 046°20'917.9
2017-Sep-09 05:01S 24°06' W 046°23'713.9
2017-Sep-09 04:30S 23°60' W 046°20'3 5.3
2017-Sep-09 04:00S 23°58' W 046°18'4 4.6
2017-Sep-09 03:14S 23°55' W 046°21'0 0.0
2017-Sep-08 09:00S 23°55' W 046°21'3 3.3
2017-Sep-08 08:15S 23°57' W 046°19'2 8.1
2017-Sep-08 07:59S 23°59' W 046°17'4 7.8
2017-Sep-08 07:30S 24°01' W 046°20'5 9.4
2017-Sep-08 07:00S 24°05' W 046°22'510.3
2017-Sep-08 06:31S 24°10' W 046°24'4 8.4
2017-Sep-08 06:00S 24°14' W 046°24'0 0.9
2017-Sep-08 05:30S 24°14' W 046°24'0 0.9
2017-Sep-08 05:00S 24°14' W 046°23'0 0.9
2017-Sep-08 04:30S 24°15' W 046°23'4 7.2
2017-Sep-08 04:01S 24°17' W 046°26'1020.3
2017-Sep-08 03:31S 24°26' W 046°31'1020.5
2017-Sep-08 03:01S 24°36' W 046°35'1020.3
2017-Sep-08 02:30S 24°44' W 046°42'1720.4
2017-Sep-08 01:39S 24°57' W 046°54'320.4
2017-Sep-08 01:30S 24°60' W 046°56'1220.4
2017-Sep-08 00:55S 25°09' W 047°05'1120.7
2017-Sep-08 00:24S 25°17' W 047°11'820.8
2017-Sep-08 00:00S 25°25' W 047°16'1420.0
2017-Sep-07 23:20S 25°35' W 047°26'34 0.7
2017-Sep-06 00:21S 25°04' W 047°12'919.7
2017-Sep-05 23:54S 24°58' W 047°04'820.1
2017-Sep-05 23:30S 24°53' W 046°58'1020.9
2017-Sep-05 23:00S 24°46' W 046°49'1021.0
2017-Sep-05 22:30S 24°39' W 046°40'1020.3
2017-Sep-05 22:00S 24°31' W 046°33'1020.6
2017-Sep-05 21:30S 24°22' W 046°29'1020.8
2017-Sep-05 21:00S 24°12' W 046°26'1019.8
2017-Sep-05 20:30S 24°03' W 046°21'5 9.3
2017-Sep-05 20:01S 23°60' W 046°18'5 7.3
2017-Sep-05 19:20S 23°55' W 046°20'0 1.1
2017-Sep-05 18:59S 23°55' W 046°21'0 0.0
2017-Sep-05 18:29S 23°55' W 046°21'0 0.0
2017-Sep-05 17:59S 23°55' W 046°21'0 0.0
2017-Sep-05 17:17S 23°55' W 046°21'0 0.0
2017-Sep-05 16:53S 23°55' W 046°21'0 0.0
2017-Sep-05 14:35S 23°55' W 046°21'0 0.0
2017-Sep-05 14:23S 23°55' W 046°21'0 0.0
2017-Sep-05 08:29S 23°55' W 046°21'0 0.0
2017-Sep-05 07:56S 23°55' W 046°21'0 0.0
2017-Sep-05 07:29S 23°55' W 046°21'0 0.0
2017-Sep-05 06:59S 23°55' W 046°21'0 0.0
2017-Sep-05 06:23S 23°55' W 046°21'0 0.0
2017-Sep-05 05:59S 23°55' W 046°21'0 0.0
2017-Sep-05 05:29S 23°55' W 046°21'0 0.0
2017-Sep-05 04:59S 23°55' W 046°21'0 0.0
2017-Sep-05 04:29S 23°55' W 046°21'0 0.0
2017-Sep-05 02:47S 23°55' W 046°21'0 0.0
2017-Sep-05 02:29S 23°55' W 046°21'0 0.0
2017-Sep-05 00:59S 23°55' W 046°21'0 0.0
2017-Sep-05 00:17S 23°55' W 046°21'0 0.0
2017-Sep-04 23:59S 23°55' W 046°21'0 0.0
2017-Sep-04 23:11S 23°55' W 046°21'0 0.0
2017-Sep-04 22:47S 23°55' W 046°21'0 0.0
2017-Sep-04 21:03S 23°55' W 046°21'0 0.3
2017-Sep-04 20:53S 23°55' W 046°21'3 4.3
2017-Sep-04 20:05S 23°58' W 046°18'2 7.0
2017-Sep-04 19:49S 23°60' W 046°18'3 8.5
2017-Sep-04 19:30S 24°01' W 046°20'5 9.8
2017-Sep-04 19:01S 24°05' W 046°22'613.0
2017-Sep-04 18:31S 24°11' W 046°19'2 2.8
2017-Sep-04 17:56S 24°11' W 046°17'0 0.0
2017-Sep-04 17:29S 24°11' W 046°17'0 0.0
2017-Sep-04 16:56S 24°11' W 046°17'0 0.0
2017-Sep-04 16:29S 24°11' W 046°17'0 0.1
2017-Sep-04 15:56S 24°11' W 046°17'0 0.1
2017-Sep-04 15:20S 24°11' W 046°17'0 0.0
2017-Sep-04 14:41S 24°11' W 046°17'0 0.0
2017-Sep-04 14:26S 24°11' W 046°17'0 0.0
2017-Sep-04 13:59S 24°11' W 046°17'0 0.0
2017-Sep-04 13:26S 24°11' W 046°17'0 0.0
2017-Sep-04 12:56S 24°11' W 046°17'0 0.0
2017-Sep-04 12:26S 24°11' W 046°17'0 0.0
2017-Sep-04 11:59S 24°11' W 046°17'0 0.0
2017-Sep-04 11:26S 24°11' W 046°17'0 0.0
2017-Sep-04 10:50S 24°11' W 046°17'0 0.0
2017-Sep-04 10:23S 24°11' W 046°17'0 0.0
2017-Sep-04 09:59S 24°11' W 046°17'0 0.0
2017-Sep-04 09:08S 24°11' W 046°17'0 0.0
2017-Sep-04 08:56S 24°11' W 046°17'0 0.0
2017-Sep-04 08:26S 24°11' W 046°17'0 0.0
2017-Sep-04 07:44S 24°11' W 046°17'0 0.0
2017-Sep-04 07:26S 24°11' W 046°17'0 0.0
2017-Sep-04 06:50S 24°11' W 046°17'0 0.0
2017-Sep-04 06:26S 24°11' W 046°17'0 0.0
2017-Sep-04 05:59S 24°11' W 046°17'0 0.0
2017-Sep-04 05:26S 24°11' W 046°17'0 0.0
2017-Sep-04 04:56S 24°11' W 046°17'0 0.0
2017-Sep-04 04:26S 24°11' W 046°17'0 0.0
2017-Sep-04 03:56S 24°11' W 046°17'0 0.0
2017-Sep-04 03:20S 24°11' W 046°17'0 0.0
2017-Sep-04 02:56S 24°11' W 046°17'0 0.0
2017-Sep-04 02:26S 24°11' W 046°17'0 0.0
2017-Sep-04 01:56S 24°11' W 046°17'0 0.0
2017-Sep-04 01:26S 24°11' W 046°17'0 0.0
2017-Sep-04 00:56S 24°11' W 046°17'0 0.0
2017-Sep-04 00:26S 24°11' W 046°17'0 0.0
2017-Sep-03 23:59S 24°11' W 046°17'0 0.0
2017-Sep-03 23:20S 24°11' W 046°17'0 0.0
2017-Sep-03 22:59S 24°11' W 046°17'0 0.0
2017-Sep-03 22:20S 24°11' W 046°17'0 0.0
2017-Sep-03 21:56S 24°11' W 046°17'0 0.0
2017-Sep-03 21:29S 24°11' W 046°17'0 0.0
2017-Sep-03 20:56S 24°11' W 046°17'0 0.0
2017-Sep-03 20:20S 24°11' W 046°17'0 0.0
2017-Sep-03 19:56S 24°11' W 046°17'0 0.0
2017-Sep-03 19:26S 24°11' W 046°17'0 0.0
2017-Sep-03 18:53S 24°11' W 046°17'0 0.0
2017-Sep-03 18:26S 24°11' W 046°17'0 0.0
2017-Sep-03 17:56S 24°11' W 046°17'0 0.0
2017-Sep-03 17:26S 24°11' W 046°17'0 0.0
2017-Sep-03 16:56S 24°11' W 046°17'0 0.0
2017-Sep-03 16:26S 24°11' W 046°17'0 0.0
2017-Sep-03 15:56S 24°11' W 046°17'0 0.0
2017-Sep-03 15:26S 24°11' W 046°17'0 0.0
2017-Sep-03 14:59S 24°11' W 046°17'0 0.0
2017-Sep-03 13:56S 24°11' W 046°17'0 0.0
2017-Sep-03 13:26S 24°11' W 046°17'0 0.0
2017-Sep-03 12:56S 24°11' W 046°17'0 0.0
2017-Sep-03 12:29S 24°11' W 046°17'0 0.0
2017-Sep-03 11:50S 24°11' W 046°17'0 0.0
2017-Sep-03 11:23S 24°11' W 046°17'0 0.0
2017-Sep-03 10:50S 24°11' W 046°17'0 0.0
2017-Sep-03 10:26S 24°11' W 046°17'0 0.0
2017-Sep-03 09:56S 24°11' W 046°17'0 0.0
2017-Sep-03 09:23S 24°11' W 046°17'0 0.0
2017-Sep-03 08:56S 24°11' W 046°17'0 0.0
2017-Sep-03 08:26S 24°11' W 046°17'0 0.0
2017-Sep-03 07:59S 24°11' W 046°17'0 0.0
2017-Sep-03 07:26S 24°11' W 046°17'0 0.0
2017-Sep-03 06:50S 24°11' W 046°17'0 0.0
2017-Sep-03 06:29S 24°11' W 046°17'0 0.0
2017-Sep-03 05:56S 24°11' W 046°17'0 0.0
2017-Sep-03 05:26S 24°11' W 046°17'0 0.0
2017-Sep-03 04:50S 24°11' W 046°17'0 0.0
2017-Sep-03 04:26S 24°11' W 046°17'0 0.0
2017-Sep-03 03:38S 24°11' W 046°17'0 0.0
2017-Sep-03 03:26S 24°11' W 046°17'0 0.0
2017-Sep-03 02:44S 24°11' W 046°17'0 0.0
2017-Sep-03 02:08S 24°11' W 046°17'0 0.0
2017-Sep-03 01:56S 24°11' W 046°17'0 0.0
2017-Sep-03 01:26S 24°11' W 046°17'0 0.0
2017-Sep-03 00:56S 24°11' W 046°17'0 0.0
2017-Sep-03 00:26S 24°11' W 046°17'0 0.0
2017-Sep-02 23:56S 24°11' W 046°17'0 0.0
2017-Sep-02 23:20S 24°11' W 046°17'0 0.0
2017-Sep-02 22:59S 24°11' W 046°17'0 0.0
2017-Sep-02 22:14S 24°11' W 046°17'0 0.0
2017-Sep-02 21:50S 24°11' W 046°17'0 0.0
2017-Sep-02 21:29S 24°11' W 046°17'0 0.0
2017-Sep-02 20:50S 24°11' W 046°17'0 0.0
2017-Sep-02 20:26S 24°11' W 046°17'0 0.0
2017-Sep-02 19:38S 24°11' W 046°17'0 0.1
2017-Sep-02 19:08S 24°11' W 046°17'0 0.1
2017-Sep-02 18:53S 24°11' W 046°17'0 0.0
2017-Sep-02 18:26S 24°11' W 046°17'0 0.0
2017-Sep-02 17:59S 24°11' W 046°17'0 0.0
2017-Sep-02 17:23S 24°11' W 046°17'0 0.0
2017-Sep-02 16:56S 24°11' W 046°17'0 0.0
2017-Sep-02 16:26S 24°11' W 046°17'0 0.0
2017-Sep-02 15:44S 24°11' W 046°17'0 0.0
2017-Sep-02 15:23S 24°11' W 046°17'0 0.0
2017-Sep-02 14:59S 24°11' W 046°17'0 0.0
2017-Sep-02 14:26S 24°11' W 046°17'0 0.0
2017-Sep-02 13:59S 24°11' W 046°17'0 0.0
2017-Sep-02 13:29S 24°11' W 046°17'0 0.0
2017-Sep-02 12:50S 24°11' W 046°17'0 0.0
2017-Sep-02 12:29S 24°11' W 046°17'0 0.0
2017-Sep-02 11:50S 24°11' W 046°17'0 0.0
2017-Sep-02 11:20S 24°11' W 046°17'0 0.0
2017-Sep-02 10:50S 24°11' W 046°17'0 0.0
2017-Sep-02 10:26S 24°11' W 046°17'0 0.0
2017-Sep-02 09:56S 24°11' W 046°17'0 0.0
2017-Sep-02 09:20S 24°11' W 046°17'0 0.0
2017-Sep-02 08:44S 24°11' W 046°17'0 0.1
2017-Sep-02 08:29S 24°11' W 046°17'0 0.0
2017-Sep-02 07:08S 24°11' W 046°17'0 0.0
2017-Sep-02 07:00S 24°11' W 046°17'0 0.0
2017-Sep-02 06:30S 24°11' W 046°17'0 0.0
2017-Sep-02 06:01S 24°11' W 046°17'0 0.0
2017-Sep-02 05:29S 24°11' W 046°17'0 0.0
2017-Sep-02 05:01S 24°11' W 046°17'0 0.0
2017-Sep-02 04:31S 24°11' W 046°17'0 0.0
2017-Sep-02 04:00S 24°11' W 046°17'0 0.0
2017-Sep-02 03:31S 24°11' W 046°17'0 0.0
2017-Sep-02 03:00S 24°11' W 046°17'0 0.0
2017-Sep-02 02:31S 24°11' W 046°17'0 0.1
2017-Sep-02 02:01S 24°11' W 046°17'0 0.1
2017-Sep-02 01:31S 24°11' W 046°17'2 3.2
2017-Sep-02 01:01S 24°12' W 046°17'510.0
2017-Sep-02 00:30S 24°16' W 046°13'916.4
2017-Sep-01 23:56S 24°15' W 046°02'  

Dump ship's entire track history